Terminal Aerodrome Forecast
Issued by NWS

Home | Current Version | Previous Version | Text Only | Print | Product List | Glossary On
Versions: 1 2 3 4 5 6 7 8 9 10 11 12 13 14 15 16 17 18 19 20
000
FTUS44 KBMX 182320
TAFEET
TAF
KEET 182320Z 1900/1924 VRB03KT P6SM SCT050
     FM190900 13004KT 2SM BR BKN006 OVC050
     FM191500 16008KT P6SM VCSH BKN020 OVC050=

USA.gov is the U.S. government's official web portal to all federal, state and local government web resources and services.